sensor_id;sensor_type;location;lat;lon;timestamp;P1;durP1;ratioP1;P2;durP2;ratioP2
21213;SDS011;10764;50.850;2.904;2022-09-12T00:02:01;794.88;;;726.38;;
21213;SDS011;10764;50.850;2.904;2022-09-12T00:04:29;855.23;;;782.60;;
21213;SDS011;10764;50.850;2.904;2022-09-12T00:06:55;890.05;;;814.95;;
21213;SDS011;10764;50.850;2.904;2022-09-12T00:09:22;920.92;;;843.90;;
21213;SDS011;10764;50.850;2.904;2022-09-12T00:11:49;884.58;;;810.22;;
21213;SDS011;10764;50.850;2.904;2022-09-12T00:14:16;882.83;;;808.70;;
21213;SDS011;10764;50.850;2.904;2022-09-12T00:16:44;903.30;;;827.77;;
21213;SDS011;10764;50.850;2.904;2022-09-12T00:19:11;842.53;;;771.33;;
21213;SDS011;10764;50.850;2.904;2022-09-12T00:21:39;880.10;;;806.40;;
21213;SDS011;10764;50.850;2.904;2022-09-12T00:24:07;907.40;;;831.63;;
21213;SDS011;10764;50.850;2.904;2022-09-12T00:26:35;971.08;;;891.22;;
21213;SDS011;10764;50.850;2.904;2022-09-12T00:29:02;967.83;;;887.65;;
21213;SDS011;10764;50.850;2.904;2022-09-12T00:31:29;982.63;;;901.88;;
21213;SDS011;10764;50.850;2.904;2022-09-12T00:33:57;988.00;;;906.70;;
21213;SDS011;10764;50.850;2.904;2022-09-12T00:36:26;963.72;;;884.00;;
21213;SDS011;10764;50.850;2.904;2022-09-12T00:38:56;934.33;;;857.03;;
21213;SDS011;10764;50.850;2.904;2022-09-12T00:41:27;1007.05;;;924.97;;
21213;SDS011;10764;50.850;2.904;2022-09-12T00:43:58;1039.28;;;955.17;;
21213;SDS011;10764;50.850;2.904;2022-09-12T00:46:40;956.70;;;877.53;;
21213;SDS011;10764;50.850;2.904;2022-09-12T00:51:41;1064.22;;;978.65;;
21213;SDS011;10764;50.850;2.904;2022-09-12T00:54:22;1083.50;;;997.00;;
21213;SDS011;10764;50.850;2.904;2022-09-12T00:56:52;1020.75;;;938.10;;
21213;SDS011;10764;50.850;2.904;2022-09-12T00:59:24;1044.10;;;959.85;;
21213;SDS011;10764;50.850;2.904;2022-09-12T01:01:55;1099.63;;;999.90;;
21213;SDS011;10764;50.850;2.904;2022-09-12T01:04:23;1081.53;;;994.72;;
21213;SDS011;10764;50.850;2.904;2022-09-12T01:06:51;1173.47;;;999.90;;
21213;SDS011;10764;50.850;2.904;2022-09-12T01:09:20;1146.10;;;999.90;;
21213;SDS011;10764;50.850;2.904;2022-09-12T01:11:48;1170.35;;;999.90;;
21213;SDS011;10764;50.850;2.904;2022-09-12T01:14:16;1160.50;;;999.90;;
21213;SDS011;10764;50.850;2.904;2022-09-12T01:16:43;1227.20;;;999.90;;
21213;SDS011;10764;50.850;2.904;2022-09-12T01:24:53;1241.30;;;999.90;;
21213;SDS011;10764;50.850;2.904;2022-09-12T01:39:18;1253.43;;;999.90;;
21213;SDS011;10764;50.850;2.904;2022-09-12T01:45:06;1263.30;;;999.90;;
21213;SDS011;10764;50.850;2.904;2022-09-12T01:50:46;1259.38;;;999.90;;
21213;SDS011;10764;50.850;2.904;2022-09-12T01:54:02;1250.47;;;999.90;;
21213;SDS011;10764;50.850;2.904;2022-09-12T01:56:14;1264.65;;;999.90;;
21213;SDS011;10764;50.850;2.904;2022-09-12T01:59:07;1242.57;;;999.90;;
21213;SDS011;10764;50.850;2.904;2022-09-12T02:01:47;1214.53;;;999.90;;
21213;SDS011;10764;50.850;2.904;2022-09-12T02:04:24;1139.50;;;999.90;;
21213;SDS011;10764;50.850;2.904;2022-09-12T02:12:10;861.77;;;789.60;;
21213;SDS011;10764;50.850;2.904;2022-09-12T02:14:44;761.58;;;696.53;;
21213;SDS011;10764;50.850;2.904;2022-09-12T02:17:15;907.43;;;831.77;;
21213;SDS011;10764;50.850;2.904;2022-09-12T02:19:48;773.00;;;707.00;;
21213;SDS011;10764;50.850;2.904;2022-09-12T02:22:32;853.83;;;782.05;;
21213;SDS011;10764;50.850;2.904;2022-09-12T02:25:02;817.35;;;748.10;;
21213;SDS011;10764;50.850;2.904;2022-09-12T02:27:34;845.42;;;773.97;;
21213;SDS011;10764;50.850;2.904;2022-09-12T02:30:05;905.20;;;829.93;;
21213;SDS011;10764;50.850;2.904;2022-09-12T02:35:02;771.58;;;705.10;;
21213;SDS011;10764;50.850;2.904;2022-09-12T02:40:50;1076.32;;;989.47;;
21213;SDS011;10764;50.850;2.904;2022-09-12T02:43:17;1104.93;;;999.90;;
21213;SDS011;10764;50.850;2.904;2022-09-12T02:45:44;1043.20;;;958.40;;
21213;SDS011;10764;50.850;2.904;2022-09-12T02:51:09;982.20;;;901.22;;
21213;SDS011;10764;50.850;2.904;2022-09-12T02:53:37;855.10;;;782.70;;
21213;SDS011;10764;50.850;2.904;2022-09-12T02:56:04;821.67;;;751.50;;
21213;SDS011;10764;50.850;2.904;2022-09-12T02:58:36;686.10;;;625.77;;
21213;SDS011;10764;50.850;2.904;2022-09-12T03:01:22;753.83;;;688.67;;
21213;SDS011;10764;50.850;2.904;2022-09-12T03:06:47;862.88;;;789.53;;
21213;SDS011;10764;50.850;2.904;2022-09-12T03:15:35;724.50;;;660.87;;
21213;SDS011;10764;50.850;2.904;2022-09-12T03:21:01;721.22;;;657.92;;
21213;SDS011;10764;50.850;2.904;2022-09-12T03:23:36;840.25;;;768.08;;
21213;SDS011;10764;50.850;2.904;2022-09-12T03:26:30;788.17;;;719.90;;
21213;SDS011;10764;50.850;2.904;2022-09-12T03:29:02;818.88;;;749.70;;
21213;SDS011;10764;50.850;2.904;2022-09-12T03:31:32;814.13;;;745.10;;
21213;SDS011;10764;50.850;2.904;2022-09-12T03:33:59;777.58;;;711.72;;
21213;SDS011;10764;50.850;2.904;2022-09-12T03:36:27;839.42;;;769.08;;
21213;SDS011;10764;50.850;2.904;2022-09-12T03:38:55;877.20;;;804.20;;
21213;SDS011;10764;50.850;2.904;2022-09-12T03:41:22;628.67;;;573.20;;
21213;SDS011;10764;50.850;2.904;2022-09-12T03:43:49;742.90;;;679.63;;
21213;SDS011;10764;50.850;2.904;2022-09-12T03:46:15;756.72;;;692.20;;
21213;SDS011;10764;50.850;2.904;2022-09-12T03:48:42;945.60;;;868.30;;
21213;SDS011;10764;50.850;2.904;2022-09-12T03:51:10;781.15;;;714.53;;
21213;SDS011;10764;50.850;2.904;2022-09-12T03:53:37;1001.08;;;920.40;;
21213;SDS011;10764;50.850;2.904;2022-09-12T03:56:08;845.83;;;774.85;;
21213;SDS011;10764;50.850;2.904;2022-09-12T03:58:36;799.53;;;732.17;;
21213;SDS011;10764;50.850;2.904;2022-09-12T04:01:11;1064.93;;;980.13;;
21213;SDS011;10764;50.850;2.904;2022-09-12T04:03:40;1182.65;;;999.90;;
21213;SDS011;10764;50.850;2.904;2022-09-12T04:06:08;1125.77;;;999.90;;
21213;SDS011;10764;50.850;2.904;2022-09-12T04:08:37;902.78;;;827.47;;
21213;SDS011;10764;50.850;2.904;2022-09-12T04:11:04;1189.43;;;999.90;;
21213;SDS011;10764;50.850;2.904;2022-09-12T04:13:32;1188.57;;;999.90;;
21213;SDS011;10764;50.850;2.904;2022-09-12T04:16:00;929.47;;;852.63;;
21213;SDS011;10764;50.850;2.904;2022-09-12T04:18:28;970.92;;;891.05;;
21213;SDS011;10764;50.850;2.904;2022-09-12T04:20:55;869.70;;;796.63;;
21213;SDS011;10764;50.850;2.904;2022-09-12T04:23:22;900.87;;;825.70;;
21213;SDS011;10764;50.850;2.904;2022-09-12T04:25:56;808.58;;;739.55;;
21213;SDS011;10764;50.850;2.904;2022-09-12T04:28:24;780.72;;;714.47;;
21213;SDS011;10764;50.850;2.904;2022-09-12T04:30:52;883.05;;;808.90;;
21213;SDS011;10764;50.850;2.904;2022-09-12T04:33:19;933.93;;;856.60;;
21213;SDS011;10764;50.850;2.904;2022-09-12T04:35:46;1031.33;;;947.43;;
21213;SDS011;10764;50.850;2.904;2022-09-12T04:38:14;1106.55;;;999.90;;
21213;SDS011;10764;50.850;2.904;2022-09-12T04:40:41;1192.57;;;999.90;;
21213;SDS011;10764;50.850;2.904;2022-09-12T04:43:08;1094.88;;;999.63;;
21213;SDS011;10764;50.850;2.904;2022-09-12T04:45:39;1154.93;;;999.90;;
21213;SDS011;10764;50.850;2.904;2022-09-12T04:48:07;1147.70;;;999.90;;
21213;SDS011;10764;50.850;2.904;2022-09-12T04:50:33;1180.78;;;999.90;;
21213;SDS011;10764;50.850;2.904;2022-09-12T04:53:00;979.28;;;898.03;;
21213;SDS011;10764;50.850;2.904;2022-09-12T04:55:27;1123.93;;;999.90;;
21213;SDS011;10764;50.850;2.904;2022-09-12T04:57:54;1177.28;;;999.90;;
21213;SDS011;10764;50.850;2.904;2022-09-12T05:00:21;1071.72;;;985.75;;
21213;SDS011;10764;50.850;2.904;2022-09-12T05:02:49;1211.72;;;999.90;;
21213;SDS011;10764;50.850;2.904;2022-09-12T05:05:15;1207.10;;;999.90;;
21213;SDS011;10764;50.850;2.904;2022-09-12T05:07:42;1168.13;;;999.90;;
21213;SDS011;10764;50.850;2.904;2022-09-12T05:10:10;1058.22;;;972.42;;
21213;SDS011;10764;50.850;2.904;2022-09-12T05:12:37;996.92;;;914.35;;
21213;SDS011;10764;50.850;2.904;2022-09-12T05:15:04;1065.07;;;974.80;;
21213;SDS011;10764;50.850;2.904;2022-09-12T05:17:32;1057.18;;;970.30;;
21213;SDS011;10764;50.850;2.904;2022-09-12T05:19:59;1069.63;;;983.10;;
21213;SDS011;10764;50.850;2.904;2022-09-12T05:22:26;1026.20;;;941.92;;
21213;SDS011;10764;50.850;2.904;2022-09-12T05:24:54;1007.20;;;923.92;;
21213;SDS011;10764;50.850;2.904;2022-09-12T05:27:21;999.30;;;916.47;;
21213;SDS011;10764;50.850;2.904;2022-09-12T05:29:48;1054.90;;;968.72;;
21213;SDS011;10764;50.850;2.904;2022-09-12T05:32:15;1011.72;;;927.63;;
21213;SDS011;10764;50.850;2.904;2022-09-12T05:34:42;1035.03;;;949.83;;
21213;SDS011;10764;50.850;2.904;2022-09-12T05:37:09;1054.57;;;968.10;;
21213;SDS011;10764;50.850;2.904;2022-09-12T05:39:36;1082.88;;;995.17;;
21213;SDS011;10764;50.850;2.904;2022-09-12T05:42:03;1024.28;;;939.80;;
21213;SDS011;10764;50.850;2.904;2022-09-12T05:44:31;1014.33;;;930.37;;
21213;SDS011;10764;50.850;2.904;2022-09-12T05:46:58;1049.20;;;963.70;;
21213;SDS011;10764;50.850;2.904;2022-09-12T05:49:25;1182.18;;;999.90;;
21213;SDS011;10764;50.850;2.904;2022-09-12T05:51:53;1058.97;;;972.43;;
21213;SDS011;10764;50.850;2.904;2022-09-12T05:54:20;1166.43;;;999.90;;
21213;SDS011;10764;50.850;2.904;2022-09-12T05:56:47;1026.53;;;942.25;;
21213;SDS011;10764;50.850;2.904;2022-09-12T05:59:15;1067.20;;;980.70;;
21213;SDS011;10764;50.850;2.904;2022-09-12T06:01:44;1175.55;;;999.90;;
21213;SDS011;10764;50.850;2.904;2022-09-12T06:04:11;1083.43;;;995.85;;
21213;SDS011;10764;50.850;2.904;2022-09-12T06:06:42;1160.25;;;999.90;;
21213;SDS011;10764;50.850;2.904;2022-09-12T06:09:14;1175.43;;;999.90;;
21213;SDS011;10764;50.850;2.904;2022-09-12T06:11:42;1083.93;;;995.28;;
21213;SDS011;10764;50.850;2.904;2022-09-12T06:14:10;1064.10;;;977.17;;
21213;SDS011;10764;50.850;2.904;2022-09-12T06:16:41;999.65;;;916.63;;
21213;SDS011;10764;50.850;2.904;2022-09-12T06:19:13;997.88;;;914.83;;
21213;SDS011;10764;50.850;2.904;2022-09-12T06:21:44;1109.45;;;999.90;;
21213;SDS011;10764;50.850;2.904;2022-09-12T06:24:12;1101.72;;;999.90;;
21213;SDS011;10764;50.850;2.904;2022-09-12T06:26:39;1112.93;;;999.90;;
21213;SDS011;10764;50.850;2.904;2022-09-12T06:29:08;1093.63;;;999.50;;
21213;SDS011;10764;50.850;2.904;2022-09-12T06:31:37;1087.70;;;999.10;;
21213;SDS011;10764;50.850;2.904;2022-09-12T06:34:06;1070.43;;;983.17;;
21213;SDS011;10764;50.850;2.904;2022-09-12T06:36:52;1079.05;;;991.15;;
21213;SDS011;10764;50.850;2.904;2022-09-12T06:39:20;940.63;;;861.38;;
21213;SDS011;10764;50.850;2.904;2022-09-12T06:41:48;846.40;;;773.70;;
21213;SDS011;10764;50.850;2.904;2022-09-12T06:44:26;973.97;;;892.60;;
21213;SDS011;10764;50.850;2.904;2022-09-12T06:46:54;894.78;;;818.67;;
21213;SDS011;10764;50.850;2.904;2022-09-12T06:49:21;967.75;;;886.65;;
21213;SDS011;10764;50.850;2.904;2022-09-12T06:51:48;1010.72;;;926.80;;
21213;SDS011;10764;50.850;2.904;2022-09-12T06:54:15;876.00;;;800.83;;
21213;SDS011;10764;50.850;2.904;2022-09-12T06:56:43;936.58;;;857.20;;
21213;SDS011;10764;50.850;2.904;2022-09-12T06:59:10;988.90;;;906.75;;
21213;SDS011;10764;50.850;2.904;2022-09-12T07:01:37;1089.82;;;999.53;;
21213;SDS011;10764;50.850;2.904;2022-09-12T07:04:05;993.47;;;911.13;;
21213;SDS011;10764;50.850;2.904;2022-09-12T07:06:41;1005.92;;;924.15;;
21213;SDS011;10764;50.850;2.904;2022-09-12T07:09:11;995.58;;;912.85;;
21213;SDS011;10764;50.850;2.904;2022-09-12T07:11:41;1034.40;;;949.10;;
21213;SDS011;10764;50.850;2.904;2022-09-12T07:14:10;967.10;;;885.78;;
21213;SDS011;10764;50.850;2.904;2022-09-12T07:16:38;928.05;;;849.72;;
21213;SDS011;10764;50.850;2.904;2022-09-12T07:19:05;906.13;;;829.05;;
21213;SDS011;10764;50.850;2.904;2022-09-12T07:21:33;976.63;;;895.03;;
21213;SDS011;10764;50.850;2.904;2022-09-12T07:24:06;954.60;;;874.05;;
21213;SDS011;10764;50.850;2.904;2022-09-12T07:26:34;1046.83;;;958.83;;
21213;SDS011;10764;50.850;2.904;2022-09-12T07:29:01;1042.10;;;956.25;;
21213;SDS011;10764;50.850;2.904;2022-09-12T07:31:48;997.47;;;914.30;;
21213;SDS011;10764;50.850;2.904;2022-09-12T07:34:15;1006.75;;;923.53;;
21213;SDS011;10764;50.850;2.904;2022-09-12T07:36:42;1040.30;;;954.73;;
21213;SDS011;10764;50.850;2.904;2022-09-12T07:39:09;926.70;;;848.15;;
21213;SDS011;10764;50.850;2.904;2022-09-12T07:41:36;918.30;;;840.53;;
21213;SDS011;10764;50.850;2.904;2022-09-12T07:44:03;914.78;;;837.17;;
21213;SDS011;10764;50.850;2.904;2022-09-12T07:46:32;869.67;;;795.03;;
21213;SDS011;10764;50.850;2.904;2022-09-12T07:49:00;970.63;;;889.03;;
21213;SDS011;10764;50.850;2.904;2022-09-12T07:51:28;1076.72;;;988.72;;
21213;SDS011;10764;50.850;2.904;2022-09-12T07:53:55;960.53;;;879.72;;
21213;SDS011;10764;50.850;2.904;2022-09-12T07:56:23;1066.10;;;978.60;;
21213;SDS011;10764;50.850;2.904;2022-09-12T07:58:55;1102.93;;;999.90;;
21213;SDS011;10764;50.850;2.904;2022-09-12T08:01:22;1079.90;;;991.87;;
21213;SDS011;10764;50.850;2.904;2022-09-12T08:03:53;1096.20;;;999.90;;
21213;SDS011;10764;50.850;2.904;2022-09-12T08:06:22;918.92;;;840.85;;
21213;SDS011;10764;50.850;2.904;2022-09-12T08:08:51;939.05;;;859.75;;
21213;SDS011;10764;50.850;2.904;2022-09-12T08:11:19;877.22;;;802.40;;
21213;SDS011;10764;50.850;2.904;2022-09-12T08:13:47;1166.70;;;999.90;;
21213;SDS011;10764;50.850;2.904;2022-09-12T08:16:21;1151.80;;;999.90;;
21213;SDS011;10764;50.850;2.904;2022-09-12T08:18:49;1023.30;;;938.40;;
21213;SDS011;10764;50.850;2.904;2022-09-12T08:21:18;1166.10;;;999.90;;
21213;SDS011;10764;50.850;2.904;2022-09-12T08:23:50;1155.32;;;999.90;;
21213;SDS011;10764;50.850;2.904;2022-09-12T08:26:17;1193.78;;;999.90;;
21213;SDS011;10764;50.850;2.904;2022-09-12T08:28:45;1147.53;;;999.90;;
21213;SDS011;10764;50.850;2.904;2022-09-12T08:31:13;1149.13;;;999.90;;
21213;SDS011;10764;50.850;2.904;2022-09-12T08:33:41;1164.00;;;999.90;;
21213;SDS011;10764;50.850;2.904;2022-09-12T08:38:37;985.60;;;903.63;;
21213;SDS011;10764;50.850;2.904;2022-09-12T08:41:10;990.50;;;908.03;;
21213;SDS011;10764;50.850;2.904;2022-09-12T08:46:09;1257.18;;;999.90;;
21213;SDS011;10764;50.850;2.904;2022-09-12T08:48:40;1255.55;;;999.90;;
21213;SDS011;10764;50.850;2.904;2022-09-12T08:51:11;1234.10;;;999.90;;
21213;SDS011;10764;50.850;2.904;2022-09-12T08:53:40;1222.30;;;999.90;;
21213;SDS011;10764;50.850;2.904;2022-09-12T08:56:08;1262.43;;;999.90;;
21213;SDS011;10764;50.850;2.904;2022-09-12T08:58:38;1227.47;;;999.90;;
21213;SDS011;10764;50.850;2.904;2022-09-12T09:12:36;1236.93;;;999.90;;
21213;SDS011;10764;50.850;2.904;2022-09-12T09:17:38;1241.60;;;999.90;;
21213;SDS011;10764;50.850;2.904;2022-09-12T09:25:19;1194.07;;;999.90;;
21213;SDS011;10764;50.850;2.904;2022-09-12T09:30:16;1221.38;;;999.90;;
21213;SDS011;10764;50.850;2.904;2022-09-12T09:32:48;1241.93;;;999.90;;
21213;SDS011;10764;50.850;2.904;2022-09-12T09:35:17;1176.20;;;999.90;;
21213;SDS011;10764;50.850;2.904;2022-09-12T09:37:59;1235.03;;;999.90;;
21213;SDS011;10764;50.850;2.904;2022-09-12T09:40:50;1243.25;;;999.90;;
21213;SDS011;10764;50.850;2.904;2022-09-12T09:43:20;1213.10;;;999.90;;
21213;SDS011;10764;50.850;2.904;2022-09-12T09:45:54;1250.28;;;999.90;;
21213;SDS011;10764;50.850;2.904;2022-09-12T09:48:44;1248.65;;;999.90;;
21213;SDS011;10764;50.850;2.904;2022-09-12T09:51:12;1234.22;;;999.90;;
21213;SDS011;10764;50.850;2.904;2022-09-12T09:53:47;1163.22;;;999.90;;
21213;SDS011;10764;50.850;2.904;2022-09-12T09:56:26;1250.40;;;999.90;;
21213;SDS011;10764;50.850;2.904;2022-09-12T09:58:53;1251.50;;;999.90;;
21213;SDS011;10764;50.850;2.904;2022-09-12T10:01:21;1268.40;;;999.90;;
21213;SDS011;10764;50.850;2.904;2022-09-12T10:03:53;1259.05;;;999.90;;
21213;SDS011;10764;50.850;2.904;2022-09-12T10:06:24;1250.03;;;999.90;;
21213;SDS011;10764;50.850;2.904;2022-09-12T10:09:05;1258.22;;;999.90;;
21213;SDS011;10764;50.850;2.904;2022-09-12T10:11:52;1233.45;;;999.90;;
21213;SDS011;10764;50.850;2.904;2022-09-12T10:14:33;1241.63;;;999.90;;
21213;SDS011;10764;50.850;2.904;2022-09-12T10:17:22;1252.67;;;999.90;;
21213;SDS011;10764;50.850;2.904;2022-09-12T10:19:50;1251.72;;;999.90;;
21213;SDS011;10764;50.850;2.904;2022-09-12T10:22:38;1252.60;;;999.90;;
21213;SDS011;10764;50.850;2.904;2022-09-12T10:25:05;1237.07;;;999.90;;
21213;SDS011;10764;50.850;2.904;2022-09-12T10:27:37;1246.22;;;999.90;;
21213;SDS011;10764;50.850;2.904;2022-09-12T10:30:13;1244.75;;;999.90;;
21213;SDS011;10764;50.850;2.904;2022-09-12T10:32:49;1252.03;;;999.90;;
21213;SDS011;10764;50.850;2.904;2022-09-12T10:35:17;1272.97;;;999.90;;
21213;SDS011;10764;50.850;2.904;2022-09-12T10:38:04;1274.32;;;999.90;;
21213;SDS011;10764;50.850;2.904;2022-09-12T10:40:36;1273.03;;;999.90;;
21213;SDS011;10764;50.850;2.904;2022-09-12T10:43:16;1268.90;;;999.90;;
21213;SDS011;10764;50.850;2.904;2022-09-12T10:45:55;1256.75;;;999.90;;
21213;SDS011;10764;50.850;2.904;2022-09-12T10:48:28;1260.70;;;999.90;;
21213;SDS011;10764;50.850;2.904;2022-09-12T10:50:57;1259.87;;;999.90;;
21213;SDS011;10764;50.850;2.904;2022-09-12T10:53:26;1235.37;;;999.90;;
21213;SDS011;10764;50.850;2.904;2022-09-12T10:56:04;1245.07;;;999.90;;
21213;SDS011;10764;50.850;2.904;2022-09-12T11:06:32;1264.23;;;999.90;;
21213;SDS011;10764;50.850;2.904;2022-09-12T11:09:12;1269.43;;;999.90;;
21213;SDS011;10764;50.850;2.904;2022-09-12T11:30:07;886.33;;;811.83;;
21213;SDS011;10764;50.850;2.904;2022-09-12T11:35:29;897.00;;;821.70;;
21213;SDS011;10764;50.850;2.904;2022-09-12T11:41:04;840.65;;;769.25;;
21213;SDS011;10764;50.850;2.904;2022-09-12T11:43:37;874.88;;;801.65;;
21213;SDS011;10764;50.850;2.904;2022-09-12T11:51:46;701.97;;;641.25;;
21213;SDS011;10764;50.850;2.904;2022-09-12T11:54:31;652.15;;;594.80;;
21213;SDS011;10764;50.850;2.904;2022-09-12T11:57:19;592.97;;;540.17;;
21213;SDS011;10764;50.850;2.904;2022-09-12T12:08:08;577.50;;;526.00;;
21213;SDS011;10764;50.850;2.904;2022-09-12T12:13:15;566.35;;;515.92;;
21213;SDS011;10764;50.850;2.904;2022-09-12T12:15:47;562.30;;;511.90;;
21213;SDS011;10764;50.850;2.904;2022-09-12T12:18:24;532.53;;;484.83;;
21213;SDS011;10764;50.850;2.904;2022-09-12T12:20:52;564.22;;;513.85;;
21213;SDS011;10764;50.850;2.904;2022-09-12T12:23:24;554.88;;;505.13;;
21213;SDS011;10764;50.850;2.904;2022-09-12T12:25:53;513.08;;;467.17;;
21213;SDS011;10764;50.850;2.904;2022-09-12T12:31:09;546.00;;;497.00;;
21213;SDS011;10764;50.850;2.904;2022-09-12T12:36:06;592.97;;;539.92;;
21213;SDS011;10764;50.850;2.904;2022-09-12T12:38:38;546.08;;;496.98;;
21213;SDS011;10764;50.850;2.904;2022-09-12T12:43:45;501.55;;;456.40;;
21213;SDS011;10764;50.850;2.904;2022-09-12T12:46:13;522.63;;;475.67;;
21213;SDS011;10764;50.850;2.904;2022-09-12T12:48:51;547.73;;;498.70;;
21213;SDS011;10764;50.850;2.904;2022-09-12T12:51:44;575.90;;;524.38;;
21213;SDS011;10764;50.850;2.904;2022-09-12T12:57:04;560.50;;;510.35;;
21213;SDS011;10764;50.850;2.904;2022-09-12T12:59:46;620.53;;;565.35;;
21213;SDS011;10764;50.850;2.904;2022-09-12T13:02:57;650.33;;;593.05;;
21213;SDS011;10764;50.850;2.904;2022-09-12T13:05:28;659.25;;;601.38;;
21213;SDS011;10764;50.850;2.904;2022-09-12T13:07:57;653.75;;;596.15;;
21213;SDS011;10764;50.850;2.904;2022-09-12T13:10:31;651.70;;;594.35;;
21213;SDS011;10764;50.850;2.904;2022-09-12T13:13:00;653.40;;;595.75;;
21213;SDS011;10764;50.850;2.904;2022-09-12T13:18:09;621.57;;;566.30;;
21213;SDS011;10764;50.850;2.904;2022-09-12T13:23:30;621.88;;;566.63;;
21213;SDS011;10764;50.850;2.904;2022-09-12T13:25:58;627.90;;;572.22;;
21213;SDS011;10764;50.850;2.904;2022-09-12T13:28:29;622.72;;;567.35;;
21213;SDS011;10764;50.850;2.904;2022-09-12T13:33:40;644.00;;;586.97;;
21213;SDS011;10764;50.850;2.904;2022-09-12T13:43:39;652.80;;;594.97;;
21213;SDS011;10764;50.850;2.904;2022-09-12T13:46:07;648.70;;;591.33;;
21213;SDS011;10764;50.850;2.904;2022-09-12T13:48:38;665.92;;;607.33;;
21213;SDS011;10764;50.850;2.904;2022-09-12T13:51:06;680.50;;;620.78;;
21213;SDS011;10764;50.850;2.904;2022-09-12T13:53:39;783.27;;;715.80;;
21213;SDS011;10764;50.850;2.904;2022-09-12T13:56:07;854.22;;;781.75;;
21213;SDS011;10764;50.850;2.904;2022-09-12T13:58:49;800.47;;;731.67;;
21213;SDS011;10764;50.850;2.904;2022-09-12T14:01:18;820.38;;;750.45;;
21213;SDS011;10764;50.850;2.904;2022-09-12T14:03:52;1026.53;;;942.70;;
21213;SDS011;10764;50.850;2.904;2022-09-12T14:09:24;961.95;;;882.25;;
21213;SDS011;10764;50.850;2.904;2022-09-12T14:11:55;963.80;;;883.92;;
21213;SDS011;10764;50.850;2.904;2022-09-12T14:14:30;976.95;;;896.10;;
21213;SDS011;10764;50.850;2.904;2022-09-12T14:16:59;965.55;;;885.80;;
21213;SDS011;10764;50.850;2.904;2022-09-12T14:19:27;985.10;;;903.90;;
21213;SDS011;10764;50.850;2.904;2022-09-12T14:21:57;946.83;;;868.13;;
21213;SDS011;10764;50.850;2.904;2022-09-12T14:24:27;953.05;;;873.67;;
21213;SDS011;10764;50.850;2.904;2022-09-12T14:26:55;1028.15;;;944.08;;
21213;SDS011;10764;50.850;2.904;2022-09-12T14:29:22;1041.95;;;957.53;;
21213;SDS011;10764;50.850;2.904;2022-09-12T14:32:00;1059.47;;;973.45;;
21213;SDS011;10764;50.850;2.904;2022-09-12T14:34:28;1128.70;;;999.90;;
21213;SDS011;10764;50.850;2.904;2022-09-12T14:36:56;1038.53;;;953.63;;
21213;SDS011;10764;50.850;2.904;2022-09-12T14:44:39;1012.20;;;929.17;;
21213;SDS011;10764;50.850;2.904;2022-09-12T14:47:18;1003.03;;;921.08;;
21213;SDS011;10764;50.850;2.904;2022-09-12T14:49:47;1009.58;;;926.83;;
21213;SDS011;10764;50.850;2.904;2022-09-12T14:52:31;1004.28;;;921.85;;
21213;SDS011;10764;50.850;2.904;2022-09-12T14:55:17;1020.72;;;937.38;;
21213;SDS011;10764;50.850;2.904;2022-09-12T14:57:45;1038.40;;;953.80;;
21213;SDS011;10764;50.850;2.904;2022-09-12T15:00:15;1078.53;;;991.80;;
21213;SDS011;10764;50.850;2.904;2022-09-12T15:02:46;1102.72;;;999.90;;
21213;SDS011;10764;50.850;2.904;2022-09-12T15:05:14;1084.47;;;997.57;;
21213;SDS011;10764;50.850;2.904;2022-09-12T15:07:43;1101.72;;;999.90;;
21213;SDS011;10764;50.850;2.904;2022-09-12T15:15:35;1080.30;;;993.42;;
21213;SDS011;10764;50.850;2.904;2022-09-12T15:18:03;1116.38;;;999.90;;
21213;SDS011;10764;50.850;2.904;2022-09-12T15:20:37;1092.78;;;999.90;;
21213;SDS011;10764;50.850;2.904;2022-09-12T15:23:38;1109.18;;;999.90;;
21213;SDS011;10764;50.850;2.904;2022-09-12T15:26:01;1084.50;;;997.58;;
21213;SDS011;10764;50.850;2.904;2022-09-12T15:28:29;1119.45;;;999.90;;
21213;SDS011;10764;50.850;2.904;2022-09-12T15:30:59;1131.82;;;999.90;;
21213;SDS011;10764;50.850;2.904;2022-09-12T15:33:28;1068.28;;;982.08;;
21213;SDS011;10764;50.850;2.904;2022-09-12T15:35:55;1034.78;;;950.50;;
21213;SDS011;10764;50.850;2.904;2022-09-12T15:38:23;1028.25;;;944.30;;
21213;SDS011;10764;50.850;2.904;2022-09-12T15:40:52;1008.25;;;925.78;;
21213;SDS011;10764;50.850;2.904;2022-09-12T15:43:20;1044.93;;;960.25;;
21213;SDS011;10764;50.850;2.904;2022-09-12T15:45:48;1101.40;;;999.90;;
21213;SDS011;10764;50.850;2.904;2022-09-12T15:48:17;1045.55;;;960.70;;
21213;SDS011;10764;50.850;2.904;2022-09-12T15:50:46;1044.55;;;959.72;;
21213;SDS011;10764;50.850;2.904;2022-09-12T15:53:14;1027.93;;;944.22;;
21213;SDS011;10764;50.850;2.904;2022-09-12T15:55:43;1049.18;;;964.25;;
21213;SDS011;10764;50.850;2.904;2022-09-12T15:58:11;1060.13;;;973.90;;
21213;SDS011;10764;50.850;2.904;2022-09-12T16:00:39;1043.20;;;958.42;;
21213;SDS011;10764;50.850;2.904;2022-09-12T16:03:26;1071.27;;;984.63;;
21213;SDS011;10764;50.850;2.904;2022-09-12T16:05:58;1034.73;;;950.07;;
21213;SDS011;10764;50.850;2.904;2022-09-12T16:08:26;951.60;;;871.97;;
21213;SDS011;10764;50.850;2.904;2022-09-12T16:11:02;864.33;;;791.07;;
21213;SDS011;10764;50.850;2.904;2022-09-12T16:13:32;879.13;;;804.60;;
21213;SDS011;10764;50.850;2.904;2022-09-12T16:15:59;856.17;;;783.17;;
21213;SDS011;10764;50.850;2.904;2022-09-12T16:18:27;860.85;;;787.55;;
21213;SDS011;10764;50.850;2.904;2022-09-12T16:20:55;853.67;;;781.00;;
21213;SDS011;10764;50.850;2.904;2022-09-12T16:23:23;878.25;;;803.47;;
21213;SDS011;10764;50.850;2.904;2022-09-12T16:26:01;891.92;;;816.33;;
21213;SDS011;10764;50.850;2.904;2022-09-12T16:28:30;893.45;;;817.63;;
21213;SDS011;10764;50.850;2.904;2022-09-12T16:30:59;897.75;;;821.55;;
21213;SDS011;10764;50.850;2.904;2022-09-12T16:33:27;920.23;;;842.70;;
21213;SDS011;10764;50.850;2.904;2022-09-12T16:36:02;980.80;;;899.58;;
21213;SDS011;10764;50.850;2.904;2022-09-12T16:38:31;928.63;;;850.65;;
21213;SDS011;10764;50.850;2.904;2022-09-12T16:41:00;942.20;;;863.35;;
21213;SDS011;10764;50.850;2.904;2022-09-12T16:43:32;946.97;;;867.80;;
21213;SDS011;10764;50.850;2.904;2022-09-12T16:46:02;925.27;;;847.40;;
21213;SDS011;10764;50.850;2.904;2022-09-12T16:48:31;986.27;;;904.90;;
21213;SDS011;10764;50.850;2.904;2022-09-12T16:50:59;961.47;;;881.80;;
21213;SDS011;10764;50.850;2.904;2022-09-12T16:53:30;992.42;;;910.88;;
21213;SDS011;10764;50.850;2.904;2022-09-12T16:55:58;1001.38;;;918.83;;
21213;SDS011;10764;50.850;2.904;2022-09-12T16:58:25;1036.18;;;951.45;;
21213;SDS011;10764;50.850;2.904;2022-09-12T17:01:00;1045.07;;;960.13;;